23°C Temp
21°C Dewpoint
89% Humidity
Temperature
10 KM/H
6 MPH
5 KTS
100°
Due East

Wind Speed
Clear
Conditions
Pressure 1015.92 (hPa) - 30 (in)
Visibility 6.2 (mi) - 10.0 (km)

Current Conditions
LEMG
Location 9(km)
Metar :LEMG 032100Z 10005KT CAVOK 23/21 Q1016 NOSIG
Tue 3rd August 23:00 pm

Airport
  Metar Aviation API Data Provided by https://www.checkwx.com/ PHP scripts by weather34.com ©2021